createdAt,value
2019-03-31T00:00:38.471Z,13.45
2019-03-31T00:03:06.939Z,13.30
2019-03-31T00:05:37.237Z,13.30
2019-03-31T00:08:05.577Z,12.03
2019-03-31T00:10:34.041Z,12.90
2019-03-31T00:13:02.567Z,12.18
2019-03-31T00:15:31.035Z,12.47
2019-03-31T00:17:59.543Z,12.80
2019-03-31T00:20:28.019Z,11.97
2019-03-31T00:22:56.457Z,11.63
2019-03-31T00:25:24.910Z,10.65
2019-03-31T00:27:53.376Z,10.68
2019-03-31T00:30:21.852Z,11.12
2019-03-31T00:32:50.378Z,10.28
2019-03-31T00:35:18.833Z,10.48
2019-03-31T00:37:47.352Z,11.20
2019-03-31T00:40:15.814Z,10.85
2019-03-31T00:42:44.264Z,10.90
2019-03-31T00:45:12.722Z,10.98
2019-03-31T00:47:41.160Z,12.07
2019-03-31T00:50:09.752Z,10.95
2019-03-31T00:52:38.204Z,10.65
2019-03-31T00:55:06.995Z,11.10
2019-03-31T00:57:35.452Z,11.10
2019-03-31T01:00:07.320Z,10.13
2019-03-31T01:02:35.852Z,10.70
2019-03-31T01:05:06.009Z,11.38
2019-03-31T01:07:34.450Z,10.55
2019-03-31T01:10:03.262Z,10.68
2019-03-31T01:12:31.704Z,10.80
2019-03-31T01:15:00.489Z,10.88
2019-03-31T01:17:29.420Z,10.48
2019-03-31T01:19:59.216Z,10.75
2019-03-31T01:22:27.716Z,10.58
2019-03-31T01:24:56.164Z,11.08
2019-03-31T01:27:25.599Z,10.75
2019-03-31T01:29:54.144Z,10.20
2019-03-31T01:32:22.930Z,9.98
2019-03-31T01:34:51.457Z,10.20
2019-03-31T01:37:20.434Z,9.90
2019-03-31T01:39:48.932Z,10.70
2019-03-31T01:42:17.444Z,10.00
2019-03-31T01:44:45.932Z,10.60
2019-03-31T01:47:14.444Z,9.85
2019-03-31T01:49:42.892Z,10.30
2019-03-31T01:52:11.429Z,9.40
2019-03-31T01:54:39.878Z,10.68
2019-03-31T01:57:08.320Z,10.20
2019-03-31T01:59:36.795Z,11.22
2019-03-31T02:02:07.134Z,9.70
2019-03-31T02:04:35.589Z,10.55
2019-03-31T02:07:05.648Z,10.53
2019-03-31T02:09:34.180Z,11.65
2019-03-31T02:12:02.709Z,10.45
2019-03-31T02:14:31.220Z,10.93
2019-03-31T02:16:59.706Z,11.00
2019-03-31T02:19:28.158Z,11.30
2019-03-31T02:21:56.676Z,10.25
2019-03-31T02:24:25.128Z,9.55
2019-03-31T02:26:53.583Z,10.93
2019-03-31T02:29:22.042Z,10.95
2019-03-31T02:31:50.495Z,10.78
2019-03-31T02:34:19.038Z,10.72
2019-03-31T02:36:47.501Z,10.80
2019-03-31T02:39:16.042Z,11.22
2019-03-31T02:41:44.488Z,10.43
2019-03-31T02:44:13.009Z,10.45
2019-03-31T02:46:41.549Z,10.68
2019-03-31T02:49:10.003Z,10.25
2019-03-31T02:51:38.444Z,9.83
2019-03-31T02:54:07.296Z,10.53
2019-03-31T02:56:37.767Z,10.60
2019-03-31T02:59:06.853Z,9.45
2019-03-31T03:01:35.923Z,9.70
2019-03-31T03:04:07.696Z,9.90
2019-03-31T03:06:36.468Z,9.13
2019-03-31T03:09:06.865Z,9.48
2019-03-31T03:11:35.951Z,9.63
2019-03-31T03:14:06.309Z,9.50
2019-03-31T03:16:34.757Z,9.50
2019-03-31T03:19:03.208Z,9.03
2019-03-31T03:21:31.648Z,9.43
2019-03-31T03:24:00.109Z,9.00
2019-03-31T03:26:28.562Z,9.45
2019-03-31T03:28:57.083Z,9.05
2019-03-31T03:31:25.541Z,9.68
2019-03-31T03:33:54.125Z,9.33
2019-03-31T03:36:22.693Z,9.23
2019-03-31T03:38:51.132Z,8.83
2019-03-31T03:41:19.580Z,9.28
2019-03-31T03:43:55.715Z,9.10
2019-03-31T03:46:18.209Z,9.05
2019-03-31T03:48:46.692Z,8.35
2019-03-31T03:51:15.243Z,9.05
2019-03-31T03:53:43.766Z,9.15
2019-03-31T03:56:12.210Z,9.05
2019-03-31T03:58:40.673Z,9.25
2019-03-31T04:01:13.414Z,8.50
2019-03-31T04:03:41.872Z,8.43
2019-03-31T04:06:10.391Z,8.43
2019-03-31T04:08:38.928Z,8.68
2019-03-31T04:11:15.716Z,8.63
2019-03-31T04:13:44.460Z,8.13
2019-03-31T04:16:12.905Z,8.93
2019-03-31T04:18:41.428Z,8.75
2019-03-31T04:21:10.051Z,8.08
2019-03-31T04:23:38.765Z,8.00
2019-03-31T04:26:07.222Z,8.08
2019-03-31T04:28:35.665Z,8.83
2019-03-31T04:31:04.200Z,8.28
2019-03-31T04:33:49.152Z,8.30
2019-03-31T04:36:02.898Z,8.00
2019-03-31T04:38:31.354Z,7.87
2019-03-31T04:40:59.835Z,8.58
2019-03-31T04:43:28.332Z,7.92
2019-03-31T04:45:56.777Z,8.48
2019-03-31T04:48:25.231Z,8.70
2019-03-31T04:50:53.681Z,7.85
2019-03-31T04:53:22.119Z,8.60
2019-03-31T04:55:50.571Z,8.43
2019-03-31T04:58:19.025Z,7.95
2019-03-31T05:00:47.751Z,7.80
2019-03-31T05:03:16.207Z,8.20
2019-03-31T05:05:44.665Z,8.58
2019-03-31T05:08:13.110Z,7.28
2019-03-31T05:10:41.565Z,7.60
2019-03-31T05:13:10.016Z,7.92
2019-03-31T05:15:38.465Z,7.97
2019-03-31T05:18:06.930Z,7.95
2019-03-31T05:20:35.440Z,7.30
2019-03-31T05:23:03.884Z,8.13
2019-03-31T05:25:32.349Z,8.35
2019-03-31T05:28:00.794Z,7.83
2019-03-31T05:30:29.242Z,7.78
2019-03-31T05:32:57.693Z,8.03
2019-03-31T05:35:27.197Z,7.75
2019-03-31T05:37:55.904Z,7.80
2019-03-31T05:40:24.416Z,8.10
2019-03-31T05:42:52.860Z,7.75
2019-03-31T05:45:21.307Z,7.90
2019-03-31T05:47:49.752Z,7.95
2019-03-31T05:50:18.203Z,7.72
2019-03-31T05:52:46.647Z,7.35
2019-03-31T05:55:15.116Z,8.05
2019-03-31T05:57:43.664Z,7.95
2019-03-31T06:00:12.768Z,7.70
2019-03-31T06:02:41.217Z,8.05
2019-03-31T06:05:09.759Z,7.58
2019-03-31T06:07:38.230Z,7.85
2019-03-31T06:10:07.154Z,7.25
2019-03-31T06:12:35.683Z,7.30
2019-03-31T06:15:05.256Z,7.90
2019-03-31T06:17:33.834Z,7.20
2019-03-31T06:20:02.455Z,7.60
2019-03-31T06:22:30.907Z,7.60
2019-03-31T06:24:59.353Z,8.80
2019-03-31T06:27:27.812Z,7.50
2019-03-31T06:29:56.253Z,8.28
2019-03-31T06:32:24.713Z,7.87
2019-03-31T06:34:53.187Z,7.70
2019-03-31T06:37:21.641Z,7.72
2019-03-31T06:39:50.104Z,7.53
2019-03-31T06:42:18.550Z,7.78
2019-03-31T06:44:46.995Z,7.92
2019-03-31T06:47:15.465Z,7.92
2019-03-31T06:49:43.921Z,7.35
2019-03-31T06:52:12.365Z,7.30
2019-03-31T06:54:41.715Z,7.08
2019-03-31T06:57:10.165Z,7.37
2019-03-31T06:59:38.621Z,7.65
2019-03-31T07:02:07.089Z,7.67
2019-03-31T07:04:35.621Z,7.67
2019-03-31T07:07:04.142Z,7.45
2019-03-31T07:09:32.668Z,7.65
2019-03-31T07:12:01.106Z,7.70
2019-03-31T07:14:29.547Z,6.92
2019-03-31T07:16:58.032Z,7.70
2019-03-31T07:19:26.476Z,7.53
2019-03-31T07:21:54.916Z,7.62
2019-03-31T07:24:23.379Z,7.87
2019-03-31T07:26:51.838Z,8.05
2019-03-31T07:29:20.282Z,7.50
2019-03-31T07:31:48.732Z,7.78
2019-03-31T07:34:17.184Z,7.58
2019-03-31T07:36:45.684Z,8.03
2019-03-31T07:39:14.424Z,7.72
2019-03-31T07:41:43.524Z,7.60
2019-03-31T07:44:15.245Z,8.00
2019-03-31T07:46:48.379Z,7.85
2019-03-31T07:49:16.838Z,9.08
2019-03-31T07:51:45.285Z,8.48
2019-03-31T07:54:13.753Z,9.00
2019-03-31T07:56:42.211Z,7.95
2019-03-31T07:59:10.757Z,8.53
2019-03-31T08:01:39.236Z,8.90
2019-03-31T08:04:07.687Z,9.33
2019-03-31T08:06:36.209Z,9.98
2019-03-31T08:09:07.076Z,10.25
2019-03-31T08:11:35.545Z,9.93
2019-03-31T08:14:03.997Z,9.95
2019-03-31T08:16:32.449Z,9.33
2019-03-31T08:19:00.916Z,10.48
2019-03-31T08:21:29.362Z,12.15
2019-03-31T08:23:57.840Z,11.00
2019-03-31T08:26:26.303Z,11.15
2019-03-31T08:28:54.824Z,11.65
2019-03-31T08:31:23.316Z,12.70
2019-03-31T08:33:51.806Z,12.58
2019-03-31T08:36:20.258Z,12.60
2019-03-31T08:38:48.788Z,13.08
2019-03-31T08:41:17.314Z,12.35
2019-03-31T08:43:45.763Z,11.48
2019-03-31T08:46:14.239Z,11.63
2019-03-31T08:48:42.784Z,12.95
2019-03-31T08:51:11.337Z,13.28
2019-03-31T08:53:39.784Z,13.70
2019-03-31T08:56:08.873Z,14.15
2019-03-31T08:58:37.467Z,13.45
2019-03-31T09:01:07.572Z,14.00
2019-03-31T09:03:39.425Z,14.83
2019-03-31T09:06:07.908Z,14.33
2019-03-31T09:08:36.454Z,14.65
2019-03-31T09:11:06.474Z,13.98
2019-03-31T09:13:34.928Z,14.55
2019-03-31T09:16:03.389Z,15.72
2019-03-31T09:18:31.856Z,16.07
2019-03-31T09:21:00.316Z,15.20
2019-03-31T09:23:28.768Z,15.75
2019-03-31T09:25:57.220Z,15.60
2019-03-31T09:28:25.680Z,14.87
2019-03-31T09:30:54.146Z,15.40
2019-03-31T09:33:22.680Z,14.73
2019-03-31T09:35:51.164Z,15.18
2019-03-31T09:38:19.628Z,14.00
2019-03-31T09:40:48.099Z,14.63
2019-03-31T09:43:16.632Z,14.07
2019-03-31T09:45:45.104Z,14.40
2019-03-31T09:48:13.556Z,13.48
2019-03-31T09:50:42.039Z,13.70
2019-03-31T09:53:10.571Z,14.40
2019-03-31T09:55:39.049Z,13.35
2019-03-31T09:58:07.512Z,11.57
2019-03-31T10:00:50.846Z,9.95
2019-03-31T10:03:20.280Z,10.10
2019-03-31T10:05:49.110Z,9.95
2019-03-31T10:08:21.363Z,8.78
2019-03-31T10:10:48.006Z,8.65
2019-03-31T10:13:16.515Z,9.93
2019-03-31T10:15:44.964Z,8.28
2019-03-31T10:18:18.003Z,9.83
2019-03-31T10:20:45.284Z,10.00
2019-03-31T10:23:13.744Z,8.93
2019-03-31T10:25:42.192Z,8.83
2019-03-31T10:28:10.729Z,8.88
2019-03-31T10:30:40.308Z,10.53
2019-03-31T10:33:08.838Z,10.60
2019-03-31T10:35:37.313Z,8.93
2019-03-31T10:38:06.320Z,9.35
2019-03-31T10:40:34.844Z,9.33
2019-03-31T10:43:03.371Z,9.53
2019-03-31T10:45:31.827Z,9.53
2019-03-31T10:48:00.296Z,9.45
2019-03-31T10:50:28.796Z,10.45
2019-03-31T10:52:57.356Z,10.38
2019-03-31T10:55:25.889Z,9.95
2019-03-31T10:57:54.409Z,10.23
2019-03-31T11:00:33.485Z,10.15
2019-03-31T11:03:01.944Z,10.03
2019-03-31T11:05:30.391Z,10.90
2019-03-31T11:07:58.907Z,11.68
2019-03-31T11:10:27.495Z,10.23
2019-03-31T11:12:55.998Z,9.85
2019-03-31T11:15:24.504Z,8.58
2019-03-31T11:17:52.957Z,8.13
2019-03-31T11:20:21.425Z,9.40
2019-03-31T11:23:00.740Z,8.98
2019-03-31T11:25:29.599Z,9.25
2019-03-31T11:27:58.226Z,10.05
2019-03-31T11:30:26.668Z,9.85
2019-03-31T11:32:55.124Z,9.90
2019-03-31T11:35:23.604Z,10.50
2019-03-31T11:37:52.107Z,9.83
2019-03-31T11:40:20.647Z,10.35
2019-03-31T11:42:49.095Z,10.15
2019-03-31T11:45:17.995Z,9.83
2019-03-31T11:47:46.447Z,10.35
2019-03-31T11:50:15.259Z,10.70
2019-03-31T11:52:43.711Z,9.95
2019-03-31T11:55:12.358Z,10.68
2019-03-31T11:57:42.351Z,10.05
2019-03-31T12:00:15.552Z,10.80
2019-03-31T12:02:44.008Z,11.80
2019-03-31T12:05:13.295Z,12.10
2019-03-31T12:07:47.119Z,11.85
2019-03-31T12:10:12.892Z,11.68
2019-03-31T12:12:41.357Z,11.48
2019-03-31T12:15:09.954Z,10.38
2019-03-31T12:17:38.404Z,11.70
2019-03-31T12:20:08.328Z,10.10
2019-03-31T12:22:36.832Z,9.80
2019-03-31T12:25:07.046Z,10.15
2019-03-31T12:27:35.501Z,11.03
2019-03-31T12:30:08.584Z,11.00
2019-03-31T12:32:38.566Z,10.98
2019-03-31T12:35:08.087Z,11.40
2019-03-31T12:37:42.925Z,10.98
2019-03-31T12:40:09.225Z,10.03
2019-03-31T12:42:37.724Z,11.00
2019-03-31T12:45:06.520Z,10.20
2019-03-31T12:47:34.977Z,10.55
2019-03-31T12:50:04.629Z,9.95
2019-03-31T12:52:46.159Z,10.00
2019-03-31T12:55:03.406Z,9.93
2019-03-31T12:57:31.940Z,11.08
2019-03-31T13:00:00.432Z,11.48
2019-03-31T13:02:28.934Z,11.48
2019-03-31T13:04:57.460Z,10.20
2019-03-31T13:07:25.920Z,10.20
2019-03-31T13:09:54.396Z,9.63
2019-03-31T13:12:22.848Z,9.70
2019-03-31T13:14:51.335Z,9.85
2019-03-31T13:17:19.858Z,11.20
2019-03-31T13:19:48.393Z,10.58
2019-03-31T13:22:16.883Z,10.45
2019-03-31T13:24:45.347Z,10.38
2019-03-31T13:27:13.820Z,11.25
2019-03-31T13:29:42.287Z,10.75
2019-03-31T13:32:10.739Z,10.88
2019-03-31T13:34:39.201Z,10.90
2019-03-31T13:37:07.663Z,9.60
2019-03-31T13:39:36.108Z,10.65
2019-03-31T13:42:04.738Z,11.18
2019-03-31T13:44:33.259Z,10.28
2019-03-31T13:47:01.755Z,11.33
2019-03-31T13:49:30.254Z,10.58
2019-03-31T13:51:58.703Z,10.93
2019-03-31T13:54:27.171Z,10.72
2019-03-31T13:56:56.182Z,9.90
2019-03-31T13:59:25.256Z,11.75
2019-03-31T14:01:53.717Z,11.75
2019-03-31T14:04:22.237Z,10.63
2019-03-31T14:06:50.769Z,11.03
2019-03-31T14:09:19.234Z,10.75
2019-03-31T14:11:48.634Z,11.00
2019-03-31T14:14:17.370Z,10.70
2019-03-31T14:16:45.813Z,10.63
2019-03-31T14:19:14.285Z,11.43
2019-03-31T14:21:42.747Z,10.70
2019-03-31T14:24:11.211Z,11.53
2019-03-31T14:26:39.739Z,11.10
2019-03-31T14:29:08.201Z,10.90
2019-03-31T14:31:36.668Z,10.40
2019-03-31T14:34:05.202Z,11.15
2019-03-31T14:36:33.758Z,12.00
2019-03-31T14:39:02.337Z,10.93
2019-03-31T14:41:30.808Z,10.63
2019-03-31T14:43:59.300Z,10.70
2019-03-31T14:46:27.781Z,10.85
2019-03-31T14:48:56.328Z,11.65
2019-03-31T14:51:24.874Z,11.43
2019-03-31T14:53:53.371Z,12.37
2019-03-31T14:56:21.903Z,12.13
2019-03-31T14:58:50.367Z,11.68
2019-03-31T15:01:21.243Z,12.28
2019-03-31T15:03:49.125Z,11.20
2019-03-31T15:06:17.582Z,11.05
2019-03-31T15:08:54.151Z,12.33
2019-03-31T15:11:16.257Z,11.75
2019-03-31T15:13:44.722Z,11.00
2019-03-31T15:16:13.179Z,10.78
2019-03-31T15:18:41.627Z,12.28
2019-03-31T15:21:10.104Z,12.78
2019-03-31T15:23:38.565Z,10.80
2019-03-31T15:26:07.038Z,11.68
2019-03-31T15:28:35.495Z,13.22
2019-03-31T15:31:03.960Z,11.78
2019-03-31T15:33:32.480Z,12.80
2019-03-31T15:36:00.932Z,12.88
2019-03-31T15:38:29.400Z,12.68
2019-03-31T15:40:57.862Z,11.93
2019-03-31T15:43:26.307Z,13.72
2019-03-31T15:45:54.783Z,13.28
2019-03-31T15:48:23.314Z,12.75
2019-03-31T15:50:51.863Z,12.40
2019-03-31T15:53:20.315Z,13.80
2019-03-31T15:55:48.787Z,14.63
2019-03-31T15:58:17.234Z,13.58
2019-03-31T16:00:45.706Z,13.50
2019-03-31T16:03:14.160Z,11.53
2019-03-31T16:05:42.645Z,12.40
2019-03-31T16:08:11.101Z,12.20
2019-03-31T16:10:39.567Z,11.93
2019-03-31T16:13:08.051Z,11.80
2019-03-31T16:15:36.505Z,12.60
2019-03-31T16:18:05.045Z,11.93
2019-03-31T16:20:33.503Z,11.93
2019-03-31T16:23:01.971Z,12.75
2019-03-31T16:25:34.751Z,12.95
2019-03-31T16:28:03.217Z,12.37
2019-03-31T16:30:31.939Z,12.35
2019-03-31T16:33:00.404Z,11.40
2019-03-31T16:35:28.859Z,12.30
2019-03-31T16:37:57.323Z,11.73
2019-03-31T16:40:25.779Z,12.33
2019-03-31T16:42:54.335Z,12.82
2019-03-31T16:45:25.503Z,12.10
2019-03-31T16:47:53.955Z,12.33
2019-03-31T16:50:22.416Z,12.63
2019-03-31T16:52:52.598Z,11.60
2019-03-31T16:55:21.183Z,11.53
2019-03-31T16:57:49.709Z,12.88
2019-03-31T17:00:18.313Z,11.75
2019-03-31T17:02:46.781Z,12.15
2019-03-31T17:05:21.656Z,13.08
2019-03-31T17:07:45.597Z,12.37
2019-03-31T17:10:14.058Z,11.63
2019-03-31T17:12:42.519Z,11.10
2019-03-31T17:15:11.741Z,11.10
2019-03-31T17:17:40.217Z,10.28
2019-03-31T17:20:09.615Z,11.53
2019-03-31T17:22:38.076Z,12.03
2019-03-31T17:25:07.279Z,11.85
2019-03-31T17:27:35.813Z,11.68
2019-03-31T17:30:06.277Z,11.90
2019-03-31T17:32:34.738Z,11.60
2019-03-31T17:35:03.200Z,11.43
2019-03-31T17:37:31.716Z,12.25
2019-03-31T17:40:06.290Z,11.63
2019-03-31T17:42:34.698Z,11.63
2019-03-31T17:45:04.144Z,11.40
2019-03-31T17:47:32.592Z,12.90
2019-03-31T17:50:01.064Z,11.38
2019-03-31T17:52:29.524Z,11.97
2019-03-31T17:54:57.980Z,11.97
2019-03-31T17:57:26.436Z,10.78
2019-03-31T17:59:54.888Z,11.75
2019-03-31T18:02:23.422Z,12.23
2019-03-31T18:04:51.885Z,12.73
2019-03-31T18:07:20.424Z,13.25
2019-03-31T18:09:48.899Z,12.95
2019-03-31T18:12:17.490Z,12.60
2019-03-31T18:14:45.947Z,13.43
2019-03-31T18:17:14.403Z,14.00
2019-03-31T18:19:42.895Z,13.25
2019-03-31T18:22:16.766Z,13.62
2019-03-31T18:24:41.539Z,12.63
2019-03-31T18:27:10.010Z,13.80
2019-03-31T18:29:38.487Z,13.62
2019-03-31T18:32:06.971Z,14.05
2019-03-31T18:34:35.488Z,13.72
2019-03-31T18:37:03.970Z,13.95
2019-03-31T18:39:32.423Z,13.65
2019-03-31T18:42:00.922Z,14.78
2019-03-31T18:44:29.465Z,13.38
2019-03-31T18:46:57.980Z,14.28
2019-03-31T18:49:26.449Z,13.93
2019-03-31T18:51:54.903Z,13.85
2019-03-31T18:54:27.823Z,14.40
2019-03-31T18:57:03.540Z,14.30
2019-03-31T18:59:36.634Z,14.07
2019-03-31T19:02:09.235Z,13.75
2019-03-31T19:04:45.025Z,13.13
2019-03-31T19:07:33.364Z,13.48
2019-03-31T19:10:24.844Z,12.78
2019-03-31T19:13:01.004Z,13.88
2019-03-31T19:15:47.306Z,14.47
2019-03-31T19:18:20.182Z,13.03
2019-03-31T19:21:10.810Z,13.60
2019-03-31T19:23:37.045Z,14.15
2019-03-31T19:26:23.414Z,13.48
2019-03-31T19:28:53.600Z,13.05
2019-03-31T19:31:23.709Z,13.80
2019-03-31T19:33:56.718Z,13.28
2019-03-31T19:36:29.720Z,13.98
2019-03-31T19:39:08.521Z,14.68
2019-03-31T19:41:47.161Z,14.85
2019-03-31T19:44:19.842Z,15.00
2019-03-31T19:46:58.608Z,15.83
2019-03-31T19:49:28.845Z,14.10
2019-03-31T19:52:08.133Z,14.85
2019-03-31T19:54:38.229Z,15.30
2019-03-31T19:57:14.116Z,13.50
2019-03-31T19:59:46.977Z,15.30
2019-03-31T20:02:17.081Z,13.80
2019-03-31T20:04:49.649Z,13.88
2019-03-31T20:07:25.516Z,15.05
2019-03-31T20:10:01.320Z,15.03
2019-03-31T20:12:31.423Z,13.60
2019-03-31T20:15:10.442Z,14.63
2019-03-31T20:17:46.017Z,14.07
2019-03-31T20:20:16.130Z,13.95
2019-03-31T20:22:58.160Z,13.08
2019-03-31T20:25:30.783Z,13.35
2019-03-31T20:28:03.451Z,14.65
2019-03-31T20:30:42.209Z,13.88
2019-03-31T20:33:15.107Z,13.35
2019-03-31T20:36:01.608Z,12.73
2019-03-31T20:38:40.567Z,14.98
2019-03-31T20:41:10.680Z,13.43
2019-03-31T20:43:40.777Z,13.78
2019-03-31T20:46:09.238Z,13.58
2019-03-31T20:48:37.701Z,12.75
2019-03-31T20:51:06.160Z,12.40
2019-03-31T20:53:34.630Z,12.40
2019-03-31T20:56:03.162Z,12.80
2019-03-31T20:58:31.666Z,11.75
2019-03-31T21:01:00.136Z,12.00
2019-03-31T21:03:28.594Z,12.15
2019-03-31T21:05:57.119Z,11.48
2019-03-31T21:08:25.567Z,12.75
2019-03-31T21:10:54.044Z,12.15
2019-03-31T21:13:22.573Z,11.97
2019-03-31T21:15:51.030Z,11.38
2019-03-31T21:18:19.573Z,12.05
2019-03-31T21:20:48.027Z,11.73
2019-03-31T21:23:16.663Z,13.30
2019-03-31T21:25:45.109Z,14.75
2019-03-31T21:28:13.573Z,13.50
2019-03-31T21:30:42.024Z,12.15
2019-03-31T21:33:10.465Z,12.95
2019-03-31T21:35:38.961Z,13.50
2019-03-31T21:38:07.407Z,13.22
2019-03-31T21:40:36.112Z,13.90
2019-03-31T21:43:04.578Z,13.15
2019-03-31T21:45:33.036Z,13.58
2019-03-31T21:48:01.488Z,14.10
2019-03-31T21:50:29.954Z,13.50
2019-03-31T21:53:04.427Z,13.18
2019-03-31T21:55:32.949Z,14.07
2019-03-31T21:58:01.415Z,14.35
2019-03-31T22:00:37.446Z,12.63
2019-03-31T22:03:05.972Z,12.45
2019-03-31T22:05:34.436Z,12.55
2019-03-31T22:08:04.087Z,12.37
2019-03-31T22:10:32.629Z,12.73
2019-03-31T22:13:01.153Z,12.23
2019-03-31T22:15:29.631Z,12.85
2019-03-31T22:17:58.080Z,12.80
2019-03-31T22:20:26.568Z,12.73
2019-03-31T22:22:55.047Z,13.50
2019-03-31T22:25:23.567Z,13.03
2019-03-31T22:27:52.044Z,12.60
2019-03-31T22:30:20.497Z,12.88
2019-03-31T22:32:48.959Z,13.58
2019-03-31T22:35:17.498Z,14.00
2019-03-31T22:37:46.335Z,14.23
2019-03-31T22:40:14.787Z,15.20
2019-03-31T22:42:43.243Z,14.83
2019-03-31T22:45:11.929Z,14.43
2019-03-31T22:47:40.465Z,14.20
2019-03-31T22:50:09.064Z,15.08
2019-03-31T22:52:37.517Z,14.93
2019-03-31T22:55:06.781Z,15.05
2019-03-31T22:57:37.924Z,15.72
2019-03-31T23:00:08.456Z,15.75
2019-03-31T23:02:36.954Z,16.15
2019-03-31T23:05:05.565Z,16.40
2019-03-31T23:07:34.023Z,14.65
2019-03-31T23:10:02.479Z,15.30
2019-03-31T23:12:30.943Z,16.05
2019-03-31T23:14:59.460Z,15.20
2019-03-31T23:20:24.125Z,17.25
2019-03-31T23:22:52.589Z,17.00
2019-03-31T23:25:21.043Z,15.65
2019-03-31T23:27:49.526Z,16.25
2019-03-31T23:30:17.990Z,17.20
2019-03-31T23:32:46.515Z,16.00
2019-03-31T23:35:14.983Z,17.23
2019-03-31T23:37:43.427Z,17.02
2019-03-31T23:40:11.953Z,18.20
2019-03-31T23:42:40.415Z,17.20
2019-03-31T23:45:08.952Z,16.67
2019-03-31T23:47:37.406Z,17.07
2019-03-31T23:50:06.415Z,16.82
2019-03-31T23:52:34.867Z,17.52
2019-03-31T23:55:03.350Z,18.37
2019-03-31T23:57:42.359Z,17.37
